sensor_id;sensor_type;location;lat;lon;timestamp;temperature;humidity
7411;DHT22;3747;48.628;9.058;2022-12-07T00:01:32;2.10;99.90
7411;DHT22;3747;48.628;9.058;2022-12-07T00:04:02;2.00;99.90
7411;DHT22;3747;48.628;9.058;2022-12-07T00:06:30;2.00;99.90
7411;DHT22;3747;48.628;9.058;2022-12-07T00:08:58;1.90;99.90
7411;DHT22;3747;48.628;9.058;2022-12-07T00:11:25;1.90;99.90
7411;DHT22;3747;48.628;9.058;2022-12-07T00:13:53;1.90;99.90
7411;DHT22;3747;48.628;9.058;2022-12-07T00:16:21;1.90;99.90
7411;DHT22;3747;48.628;9.058;2022-12-07T00:18:48;1.90;99.90
7411;DHT22;3747;48.628;9.058;2022-12-07T00:21:18;2.00;99.90
7411;DHT22;3747;48.628;9.058;2022-12-07T00:23:46;2.00;99.90
7411;DHT22;3747;48.628;9.058;2022-12-07T00:26:15;2.00;99.90
7411;DHT22;3747;48.628;9.058;2022-12-07T00:28:45;2.00;99.90
7411;DHT22;3747;48.628;9.058;2022-12-07T00:31:12;2.00;99.90
7411;DHT22;3747;48.628;9.058;2022-12-07T00:33:39;2.00;99.90
7411;DHT22;3747;48.628;9.058;2022-12-07T00:36:12;2.00;99.90
7411;DHT22;3747;48.628;9.058;2022-12-07T00:38:40;1.90;99.90
7411;DHT22;3747;48.628;9.058;2022-12-07T00:41:11;1.90;99.90
7411;DHT22;3747;48.628;9.058;2022-12-07T00:43:38;1.90;99.90
7411;DHT22;3747;48.628;9.058;2022-12-07T00:46:06;1.80;99.90
7411;DHT22;3747;48.628;9.058;2022-12-07T00:48:32;1.80;99.90
7411;DHT22;3747;48.628;9.058;2022-12-07T00:50:59;1.80;99.90
7411;DHT22;3747;48.628;9.058;2022-12-07T00:53:26;1.90;99.90
7411;DHT22;3747;48.628;9.058;2022-12-07T00:55:54;1.90;99.90
7411;DHT22;3747;48.628;9.058;2022-12-07T00:58:22;1.90;99.90
7411;DHT22;3747;48.628;9.058;2022-12-07T01:00:49;1.90;99.90
7411;DHT22;3747;48.628;9.058;2022-12-07T01:03:16;1.90;99.90
7411;DHT22;3747;48.628;9.058;2022-12-07T01:05:50;1.90;99.90
7411;DHT22;3747;48.628;9.058;2022-12-07T01:08:17;1.90;99.90
7411;DHT22;3747;48.628;9.058;2022-12-07T01:10:44;1.90;99.90
7411;DHT22;3747;48.628;9.058;2022-12-07T01:13:12;1.90;99.90
7411;DHT22;3747;48.628;9.058;2022-12-07T01:15:39;2.00;99.90
7411;DHT22;3747;48.628;9.058;2022-12-07T01:18:06;2.10;99.90
7411;DHT22;3747;48.628;9.058;2022-12-07T01:20:33;2.00;99.90
7411;DHT22;3747;48.628;9.058;2022-12-07T01:23:00;1.90;99.90
7411;DHT22;3747;48.628;9.058;2022-12-07T01:25:27;2.00;99.90
7411;DHT22;3747;48.628;9.058;2022-12-07T01:27:54;1.90;99.90
7411;DHT22;3747;48.628;9.058;2022-12-07T01:30:22;2.00;99.90
7411;DHT22;3747;48.628;9.058;2022-12-07T01:32:49;2.00;99.90
7411;DHT22;3747;48.628;9.058;2022-12-07T01:35:15;1.90;99.90
7411;DHT22;3747;48.628;9.058;2022-12-07T01:37:42;1.90;99.90
7411;DHT22;3747;48.628;9.058;2022-12-07T01:40:10;1.90;99.90
7411;DHT22;3747;48.628;9.058;2022-12-07T01:42:37;1.90;99.90
7411;DHT22;3747;48.628;9.058;2022-12-07T01:45:37;1.80;99.90
7411;DHT22;3747;48.628;9.058;2022-12-07T01:48:05;1.80;99.90
7411;DHT22;3747;48.628;9.058;2022-12-07T01:50:35;1.80;99.90
7411;DHT22;3747;48.628;9.058;2022-12-07T01:53:04;1.70;99.90
7411;DHT22;3747;48.628;9.058;2022-12-07T01:55:33;1.80;99.90
7411;DHT22;3747;48.628;9.058;2022-12-07T01:58:00;1.70;99.90
7411;DHT22;3747;48.628;9.058;2022-12-07T02:00:27;1.80;99.90
7411;DHT22;3747;48.628;9.058;2022-12-07T02:02:59;1.80;99.90
7411;DHT22;3747;48.628;9.058;2022-12-07T02:05:28;1.80;99.90
7411;DHT22;3747;48.628;9.058;2022-12-07T02:07:55;1.80;99.90
7411;DHT22;3747;48.628;9.058;2022-12-07T02:10:25;1.80;99.90
7411;DHT22;3747;48.628;9.058;2022-12-07T02:12:55;1.80;99.90
7411;DHT22;3747;48.628;9.058;2022-12-07T02:15:26;1.80;99.90
7411;DHT22;3747;48.628;9.058;2022-12-07T02:18:01;1.80;99.90
7411;DHT22;3747;48.628;9.058;2022-12-07T02:20:33;1.80;99.90
7411;DHT22;3747;48.628;9.058;2022-12-07T02:23:29;1.70;99.90
7411;DHT22;3747;48.628;9.058;2022-12-07T02:26:23;1.70;99.90
7411;DHT22;3747;48.628;9.058;2022-12-07T02:29:16;1.60;99.90
7411;DHT22;3747;48.628;9.058;2022-12-07T02:31:48;1.60;99.90
7411;DHT22;3747;48.628;9.058;2022-12-07T02:34:22;1.60;99.90
7411;DHT22;3747;48.628;9.058;2022-12-07T02:36:55;1.60;99.90
7411;DHT22;3747;48.628;9.058;2022-12-07T02:39:28;1.50;99.90
7411;DHT22;3747;48.628;9.058;2022-12-07T02:42:02;1.40;99.90
7411;DHT22;3747;48.628;9.058;2022-12-07T02:44:31;1.40;99.90
7411;DHT22;3747;48.628;9.058;2022-12-07T02:47:02;1.40;99.90
7411;DHT22;3747;48.628;9.058;2022-12-07T02:49:30;1.30;99.90
7411;DHT22;3747;48.628;9.058;2022-12-07T02:51:57;1.40;99.90
7411;DHT22;3747;48.628;9.058;2022-12-07T02:54:23;1.40;99.90
7411;DHT22;3747;48.628;9.058;2022-12-07T02:56:56;1.40;99.90
7411;DHT22;3747;48.628;9.058;2022-12-07T02:59:36;1.30;99.90
7411;DHT22;3747;48.628;9.058;2022-12-07T03:02:15;1.20;99.90
7411;DHT22;3747;48.628;9.058;2022-12-07T03:04:52;1.20;99.90
7411;DHT22;3747;48.628;9.058;2022-12-07T03:07:29;1.20;99.90
7411;DHT22;3747;48.628;9.058;2022-12-07T03:10:03;1.20;99.90
7411;DHT22;3747;48.628;9.058;2022-12-07T03:12:34;1.20;99.90
7411;DHT22;3747;48.628;9.058;2022-12-07T03:15:06;1.10;99.90
7411;DHT22;3747;48.628;9.058;2022-12-07T03:17:37;1.10;99.90
7411;DHT22;3747;48.628;9.058;2022-12-07T03:20:08;1.10;99.90
7411;DHT22;3747;48.628;9.058;2022-12-07T03:22:37;1.00;99.90
7411;DHT22;3747;48.628;9.058;2022-12-07T03:25:08;1.00;99.90
7411;DHT22;3747;48.628;9.058;2022-12-07T03:27:38;1.00;99.90
7411;DHT22;3747;48.628;9.058;2022-12-07T03:30:10;1.00;99.90
7411;DHT22;3747;48.628;9.058;2022-12-07T03:32:41;1.00;99.90
7411;DHT22;3747;48.628;9.058;2022-12-07T03:35:14;1.00;99.90
7411;DHT22;3747;48.628;9.058;2022-12-07T03:37:46;1.00;99.90
7411;DHT22;3747;48.628;9.058;2022-12-07T03:40:20;1.00;99.90
7411;DHT22;3747;48.628;9.058;2022-12-07T03:42:48;1.00;99.90
7411;DHT22;3747;48.628;9.058;2022-12-07T03:45:18;1.00;99.90
7411;DHT22;3747;48.628;9.058;2022-12-07T03:47:52;1.00;99.90
7411;DHT22;3747;48.628;9.058;2022-12-07T03:50:25;0.90;99.90
7411;DHT22;3747;48.628;9.058;2022-12-07T03:52:56;0.90;99.90
7411;DHT22;3747;48.628;9.058;2022-12-07T03:55:28;0.80;99.90
7411;DHT22;3747;48.628;9.058;2022-12-07T03:57:59;0.80;99.90
7411;DHT22;3747;48.628;9.058;2022-12-07T04:00:28;0.90;99.90
7411;DHT22;3747;48.628;9.058;2022-12-07T04:02:56;0.90;99.90
7411;DHT22;3747;48.628;9.058;2022-12-07T04:05:23;0.90;99.90
7411;DHT22;3747;48.628;9.058;2022-12-07T04:07:50;1.00;99.90
7411;DHT22;3747;48.628;9.058;2022-12-07T04:10:17;0.90;99.90
7411;DHT22;3747;48.628;9.058;2022-12-07T04:12:44;1.00;99.90
7411;DHT22;3747;48.628;9.058;2022-12-07T04:15:10;1.00;99.90
7411;DHT22;3747;48.628;9.058;2022-12-07T04:17:38;1.10;99.90
7411;DHT22;3747;48.628;9.058;2022-12-07T04:20:07;1.20;99.90
7411;DHT22;3747;48.628;9.058;2022-12-07T04:22:34;1.20;99.90
7411;DHT22;3747;48.628;9.058;2022-12-07T04:25:00;1.20;99.90
7411;DHT22;3747;48.628;9.058;2022-12-07T04:27:27;1.20;99.90
7411;DHT22;3747;48.628;9.058;2022-12-07T04:29:54;1.20;99.90
7411;DHT22;3747;48.628;9.058;2022-12-07T04:32:21;1.20;99.90
7411;DHT22;3747;48.628;9.058;2022-12-07T04:34:49;1.10;99.90
7411;DHT22;3747;48.628;9.058;2022-12-07T04:37:16;1.10;99.90
7411;DHT22;3747;48.628;9.058;2022-12-07T04:39:43;1.00;99.90
7411;DHT22;3747;48.628;9.058;2022-12-07T04:42:11;0.90;99.90
7411;DHT22;3747;48.628;9.058;2022-12-07T04:44:39;1.00;99.90
7411;DHT22;3747;48.628;9.058;2022-12-07T04:47:06;0.90;99.90
7411;DHT22;3747;48.628;9.058;2022-12-07T04:49:33;1.00;99.90
7411;DHT22;3747;48.628;9.058;2022-12-07T04:52:01;1.00;99.90
7411;DHT22;3747;48.628;9.058;2022-12-07T04:54:28;1.00;99.90
7411;DHT22;3747;48.628;9.058;2022-12-07T04:56:55;1.00;99.90
7411;DHT22;3747;48.628;9.058;2022-12-07T04:59:22;0.90;99.90
7411;DHT22;3747;48.628;9.058;2022-12-07T05:01:48;0.90;99.90
7411;DHT22;3747;48.628;9.058;2022-12-07T05:04:15;0.90;99.90
7411;DHT22;3747;48.628;9.058;2022-12-07T05:06:43;0.90;99.90
7411;DHT22;3747;48.628;9.058;2022-12-07T05:09:11;0.90;99.90
7411;DHT22;3747;48.628;9.058;2022-12-07T05:11:38;0.70;99.90
7411;DHT22;3747;48.628;9.058;2022-12-07T05:14:07;0.60;99.90
7411;DHT22;3747;48.628;9.058;2022-12-07T05:16:34;0.50;99.90
7411;DHT22;3747;48.628;9.058;2022-12-07T05:19:01;0.30;99.90
7411;DHT22;3747;48.628;9.058;2022-12-07T05:21:27;0.10;99.90
7411;DHT22;3747;48.628;9.058;2022-12-07T05:23:54;0.00;99.90
7411;DHT22;3747;48.628;9.058;2022-12-07T05:26:22;-0.20;99.90
7411;DHT22;3747;48.628;9.058;2022-12-07T05:28:53;-0.20;99.90
7411;DHT22;3747;48.628;9.058;2022-12-07T05:31:20;-0.10;99.90
7411;DHT22;3747;48.628;9.058;2022-12-07T05:33:47;-0.10;99.90
7411;DHT22;3747;48.628;9.058;2022-12-07T05:36:14;0.00;99.90
7411;DHT22;3747;48.628;9.058;2022-12-07T05:38:41;0.10;99.90
7411;DHT22;3747;48.628;9.058;2022-12-07T05:41:08;0.10;99.90
7411;DHT22;3747;48.628;9.058;2022-12-07T05:43:58;0.20;99.90
7411;DHT22;3747;48.628;9.058;2022-12-07T05:46:25;0.30;99.90
7411;DHT22;3747;48.628;9.058;2022-12-07T05:48:51;0.20;99.90
7411;DHT22;3747;48.628;9.058;2022-12-07T05:51:18;0.20;99.90
7411;DHT22;3747;48.628;9.058;2022-12-07T05:53:45;0.10;99.90
7411;DHT22;3747;48.628;9.058;2022-12-07T05:56:12;0.00;99.90
7411;DHT22;3747;48.628;9.058;2022-12-07T05:58:39;-0.30;99.90
7411;DHT22;3747;48.628;9.058;2022-12-07T06:01:25;-0.60;99.90
7411;DHT22;3747;48.628;9.058;2022-12-07T06:03:52;-0.70;99.90
7411;DHT22;3747;48.628;9.058;2022-12-07T06:06:18;-0.70;99.90
7411;DHT22;3747;48.628;9.058;2022-12-07T06:08:45;-0.60;99.90
7411;DHT22;3747;48.628;9.058;2022-12-07T06:11:12;-0.70;99.90
7411;DHT22;3747;48.628;9.058;2022-12-07T06:13:56;-0.80;99.90
7411;DHT22;3747;48.628;9.058;2022-12-07T06:16:24;-0.70;99.90
7411;DHT22;3747;48.628;9.058;2022-12-07T06:18:51;-0.70;99.90
7411;DHT22;3747;48.628;9.058;2022-12-07T06:21:18;-0.80;99.90
7411;DHT22;3747;48.628;9.058;2022-12-07T06:23:45;-0.80;99.90
7411;DHT22;3747;48.628;9.058;2022-12-07T06:26:13;-0.80;99.90
7411;DHT22;3747;48.628;9.058;2022-12-07T06:28:40;-0.80;99.90
7411;DHT22;3747;48.628;9.058;2022-12-07T06:31:07;-0.70;99.90
7411;DHT22;3747;48.628;9.058;2022-12-07T06:33:35;-0.70;99.90
7411;DHT22;3747;48.628;9.058;2022-12-07T06:36:02;-0.60;99.90
7411;DHT22;3747;48.628;9.058;2022-12-07T06:38:29;-0.60;99.90
7411;DHT22;3747;48.628;9.058;2022-12-07T06:40:56;-0.50;99.90
7411;DHT22;3747;48.628;9.058;2022-12-07T06:43:23;-0.50;99.90
7411;DHT22;3747;48.628;9.058;2022-12-07T06:45:49;-0.60;99.90
7411;DHT22;3747;48.628;9.058;2022-12-07T06:48:16;-0.60;99.90
7411;DHT22;3747;48.628;9.058;2022-12-07T06:50:45;-0.40;99.90
7411;DHT22;3747;48.628;9.058;2022-12-07T06:53:12;-0.40;99.90
7411;DHT22;3747;48.628;9.058;2022-12-07T06:55:39;-0.40;99.90
7411;DHT22;3747;48.628;9.058;2022-12-07T06:58:06;-0.30;99.90
7411;DHT22;3747;48.628;9.058;2022-12-07T07:00:33;-0.30;99.90
7411;DHT22;3747;48.628;9.058;2022-12-07T07:03:00;-0.20;99.90
7411;DHT22;3747;48.628;9.058;2022-12-07T07:05:27;0.00;99.90
7411;DHT22;3747;48.628;9.058;2022-12-07T07:07:55;-0.10;99.90
7411;DHT22;3747;48.628;9.058;2022-12-07T07:10:22;0.00;99.90
7411;DHT22;3747;48.628;9.058;2022-12-07T07:12:49;0.00;99.90
7411;DHT22;3747;48.628;9.058;2022-12-07T07:15:16;0.00;99.90
7411;DHT22;3747;48.628;9.058;2022-12-07T07:17:42;0.00;99.90
7411;DHT22;3747;48.628;9.058;2022-12-07T07:20:10;0.10;99.90
7411;DHT22;3747;48.628;9.058;2022-12-07T07:22:37;0.20;99.90
7411;DHT22;3747;48.628;9.058;2022-12-07T07:25:05;0.20;99.90
7411;DHT22;3747;48.628;9.058;2022-12-07T07:27:32;0.30;99.90
7411;DHT22;3747;48.628;9.058;2022-12-07T07:29:59;0.40;99.90
7411;DHT22;3747;48.628;9.058;2022-12-07T07:32:26;0.40;99.90
7411;DHT22;3747;48.628;9.058;2022-12-07T07:34:53;0.50;99.90
7411;DHT22;3747;48.628;9.058;2022-12-07T07:37:20;0.60;99.90
7411;DHT22;3747;48.628;9.058;2022-12-07T07:39:47;0.60;99.90
7411;DHT22;3747;48.628;9.058;2022-12-07T07:42:15;0.70;99.90
7411;DHT22;3747;48.628;9.058;2022-12-07T07:44:41;0.70;99.90
7411;DHT22;3747;48.628;9.058;2022-12-07T07:47:08;0.70;99.90
7411;DHT22;3747;48.628;9.058;2022-12-07T07:49:35;0.80;99.90
7411;DHT22;3747;48.628;9.058;2022-12-07T07:52:02;0.80;99.90
7411;DHT22;3747;48.628;9.058;2022-12-07T07:54:29;0.80;99.90
7411;DHT22;3747;48.628;9.058;2022-12-07T07:56:55;0.80;99.90
7411;DHT22;3747;48.628;9.058;2022-12-07T07:59:24;0.90;99.90
7411;DHT22;3747;48.628;9.058;2022-12-07T08:01:51;0.90;99.90
7411;DHT22;3747;48.628;9.058;2022-12-07T08:04:17;0.90;99.90
7411;DHT22;3747;48.628;9.058;2022-12-07T08:06:44;0.90;99.90
7411;DHT22;3747;48.628;9.058;2022-12-07T08:09:12;0.90;99.90
7411;DHT22;3747;48.628;9.058;2022-12-07T08:11:38;1.00;99.90
7411;DHT22;3747;48.628;9.058;2022-12-07T08:14:05;1.00;99.90
7411;DHT22;3747;48.628;9.058;2022-12-07T08:16:33;1.10;99.90
7411;DHT22;3747;48.628;9.058;2022-12-07T08:19:00;1.20;99.90
7411;DHT22;3747;48.628;9.058;2022-12-07T08:21:27;1.20;99.90
7411;DHT22;3747;48.628;9.058;2022-12-07T08:23:53;1.20;99.90
7411;DHT22;3747;48.628;9.058;2022-12-07T08:26:20;1.20;99.90
7411;DHT22;3747;48.628;9.058;2022-12-07T08:28:47;1.20;99.90
7411;DHT22;3747;48.628;9.058;2022-12-07T08:31:16;1.30;99.90
7411;DHT22;3747;48.628;9.058;2022-12-07T08:33:46;1.50;99.90
7411;DHT22;3747;48.628;9.058;2022-12-07T08:36:13;1.60;99.90
7411;DHT22;3747;48.628;9.058;2022-12-07T08:38:41;1.60;99.90
7411;DHT22;3747;48.628;9.058;2022-12-07T08:41:08;1.70;99.90
7411;DHT22;3747;48.628;9.058;2022-12-07T08:43:35;1.80;99.90
7411;DHT22;3747;48.628;9.058;2022-12-07T08:46:06;1.80;99.90
7411;DHT22;3747;48.628;9.058;2022-12-07T08:48:37;1.90;99.90
7411;DHT22;3747;48.628;9.058;2022-12-07T08:51:07;2.00;99.90
7411;DHT22;3747;48.628;9.058;2022-12-07T08:53:34;2.10;99.90
7411;DHT22;3747;48.628;9.058;2022-12-07T08:56:01;2.20;99.90
7411;DHT22;3747;48.628;9.058;2022-12-07T08:58:28;2.40;99.90
7411;DHT22;3747;48.628;9.058;2022-12-07T09:00:55;2.50;99.90
7411;DHT22;3747;48.628;9.058;2022-12-07T09:03:22;2.50;99.90
7411;DHT22;3747;48.628;9.058;2022-12-07T09:05:49;2.50;99.90
7411;DHT22;3747;48.628;9.058;2022-12-07T09:08:17;2.60;99.90
7411;DHT22;3747;48.628;9.058;2022-12-07T09:10:43;2.70;99.90
7411;DHT22;3747;48.628;9.058;2022-12-07T09:13:10;2.70;99.90
7411;DHT22;3747;48.628;9.058;2022-12-07T09:15:37;2.80;99.90
7411;DHT22;3747;48.628;9.058;2022-12-07T09:18:04;3.00;99.90
7411;DHT22;3747;48.628;9.058;2022-12-07T09:20:31;3.10;99.90
7411;DHT22;3747;48.628;9.058;2022-12-07T09:22:57;3.20;99.90
7411;DHT22;3747;48.628;9.058;2022-12-07T09:25:27;3.20;99.90
7411;DHT22;3747;48.628;9.058;2022-12-07T09:27:57;3.30;99.90
7411;DHT22;3747;48.628;9.058;2022-12-07T09:30:25;3.30;99.90
7411;DHT22;3747;48.628;9.058;2022-12-07T09:32:53;3.40;99.90
7411;DHT22;3747;48.628;9.058;2022-12-07T09:35:43;3.40;99.90
7411;DHT22;3747;48.628;9.058;2022-12-07T09:38:10;3.30;99.90
7411;DHT22;3747;48.628;9.058;2022-12-07T09:40:38;3.30;99.90
7411;DHT22;3747;48.628;9.058;2022-12-07T09:43:05;3.30;99.90
7411;DHT22;3747;48.628;9.058;2022-12-07T09:45:38;3.50;99.90
7411;DHT22;3747;48.628;9.058;2022-12-07T09:48:08;3.80;99.90
7411;DHT22;3747;48.628;9.058;2022-12-07T09:50:40;4.00;99.90
7411;DHT22;3747;48.628;9.058;2022-12-07T09:53:09;4.20;99.90
7411;DHT22;3747;48.628;9.058;2022-12-07T09:55:39;4.10;99.90
7411;DHT22;3747;48.628;9.058;2022-12-07T09:58:10;4.10;99.90
7411;DHT22;3747;48.628;9.058;2022-12-07T10:00:43;4.00;99.90
7411;DHT22;3747;48.628;9.058;2022-12-07T10:03:11;3.90;99.90
7411;DHT22;3747;48.628;9.058;2022-12-07T10:05:41;3.80;99.90
7411;DHT22;3747;48.628;9.058;2022-12-07T10:08:12;3.80;99.90
7411;DHT22;3747;48.628;9.058;2022-12-07T10:10:40;3.80;99.90
7411;DHT22;3747;48.628;9.058;2022-12-07T10:13:08;3.80;99.90
7411;DHT22;3747;48.628;9.058;2022-12-07T10:15:47;4.00;99.90
7411;DHT22;3747;48.628;9.058;2022-12-07T10:18:20;4.00;99.90
7411;DHT22;3747;48.628;9.058;2022-12-07T10:20:47;4.10;99.90
7411;DHT22;3747;48.628;9.058;2022-12-07T10:23:16;4.20;99.90
7411;DHT22;3747;48.628;9.058;2022-12-07T10:25:45;4.30;99.90
7411;DHT22;3747;48.628;9.058;2022-12-07T10:28:33;4.20;99.90
7411;DHT22;3747;48.628;9.058;2022-12-07T10:31:15;4.20;99.90
7411;DHT22;3747;48.628;9.058;2022-12-07T10:33:49;4.10;99.90
7411;DHT22;3747;48.628;9.058;2022-12-07T10:36:19;4.10;99.90
7411;DHT22;3747;48.628;9.058;2022-12-07T10:38:48;4.20;99.90
7411;DHT22;3747;48.628;9.058;2022-12-07T10:41:16;4.10;99.90
7411;DHT22;3747;48.628;9.058;2022-12-07T10:43:55;4.20;99.90
7411;DHT22;3747;48.628;9.058;2022-12-07T10:49:46;4.20;99.90
7411;DHT22;3747;48.628;9.058;2022-12-07T10:52:21;4.30;99.90
7411;DHT22;3747;48.628;9.058;2022-12-07T10:55:00;4.30;99.90
7411;DHT22;3747;48.628;9.058;2022-12-07T10:57:41;4.30;99.90
7411;DHT22;3747;48.628;9.058;2022-12-07T11:00:15;4.20;99.90
7411;DHT22;3747;48.628;9.058;2022-12-07T11:02:57;3.90;99.90
7411;DHT22;3747;48.628;9.058;2022-12-07T11:05:30;4.00;99.90
7411;DHT22;3747;48.628;9.058;2022-12-07T11:08:04;4.20;99.90
7411;DHT22;3747;48.628;9.058;2022-12-07T11:10:41;4.20;99.90
7411;DHT22;3747;48.628;9.058;2022-12-07T11:13:24;4.40;99.90
7411;DHT22;3747;48.628;9.058;2022-12-07T11:16:12;4.40;99.90
7411;DHT22;3747;48.628;9.058;2022-12-07T11:18:49;4.50;99.90
7411;DHT22;3747;48.628;9.058;2022-12-07T11:21:24;4.40;99.90
7411;DHT22;3747;48.628;9.058;2022-12-07T11:23:59;4.40;99.90
7411;DHT22;3747;48.628;9.058;2022-12-07T11:26:40;4.50;99.90
7411;DHT22;3747;48.628;9.058;2022-12-07T11:29:28;4.40;99.90
7411;DHT22;3747;48.628;9.058;2022-12-07T11:32:07;4.30;99.90
7411;DHT22;3747;48.628;9.058;2022-12-07T11:34:42;4.30;99.90
7411;DHT22;3747;48.628;9.058;2022-12-07T11:37:14;4.30;99.90
7411;DHT22;3747;48.628;9.058;2022-12-07T11:39:46;4.20;99.90
7411;DHT22;3747;48.628;9.058;2022-12-07T11:42:21;4.20;99.90
7411;DHT22;3747;48.628;9.058;2022-12-07T11:44:53;4.20;99.90
7411;DHT22;3747;48.628;9.058;2022-12-07T11:47:27;4.10;99.90
7411;DHT22;3747;48.628;9.058;2022-12-07T11:50:03;4.20;99.90
7411;DHT22;3747;48.628;9.058;2022-12-07T11:52:41;4.20;99.90
7411;DHT22;3747;48.628;9.058;2022-12-07T11:55:19;4.20;99.90
7411;DHT22;3747;48.628;9.058;2022-12-07T11:57:54;4.20;99.90
7411;DHT22;3747;48.628;9.058;2022-12-07T12:00:25;4.40;99.90
7411;DHT22;3747;48.628;9.058;2022-12-07T12:02:55;4.40;99.90
7411;DHT22;3747;48.628;9.058;2022-12-07T12:05:25;4.30;99.90
7411;DHT22;3747;48.628;9.058;2022-12-07T12:07:59;4.40;99.90
7411;DHT22;3747;48.628;9.058;2022-12-07T12:10:37;4.20;99.90
7411;DHT22;3747;48.628;9.058;2022-12-07T12:13:34;4.30;99.90
7411;DHT22;3747;48.628;9.058;2022-12-07T12:16:18;4.40;99.90
7411;DHT22;3747;48.628;9.058;2022-12-07T12:19:00;4.40;99.90
7411;DHT22;3747;48.628;9.058;2022-12-07T12:21:30;4.40;99.90
7411;DHT22;3747;48.628;9.058;2022-12-07T12:24:00;4.50;99.90
7411;DHT22;3747;48.628;9.058;2022-12-07T12:26:32;4.40;99.90
7411;DHT22;3747;48.628;9.058;2022-12-07T12:29:01;4.40;99.90
7411;DHT22;3747;48.628;9.058;2022-12-07T12:31:34;4.20;99.90
7411;DHT22;3747;48.628;9.058;2022-12-07T12:34:04;4.20;99.90
7411;DHT22;3747;48.628;9.058;2022-12-07T12:36:46;4.10;99.90
7411;DHT22;3747;48.628;9.058;2022-12-07T12:39:14;3.80;99.90
7411;DHT22;3747;48.628;9.058;2022-12-07T12:42:01;3.90;99.90
7411;DHT22;3747;48.628;9.058;2022-12-07T12:45:05;3.90;99.90
7411;DHT22;3747;48.628;9.058;2022-12-07T12:47:52;3.80;99.90
7411;DHT22;3747;48.628;9.058;2022-12-07T12:50:21;3.60;99.90
7411;DHT22;3747;48.628;9.058;2022-12-07T12:52:55;3.60;99.90
7411;DHT22;3747;48.628;9.058;2022-12-07T12:58:35;3.80;99.90
7411;DHT22;3747;48.628;9.058;2022-12-07T13:04:24;3.90;99.90
7411;DHT22;3747;48.628;9.058;2022-12-07T13:06:51;3.80;99.90
7411;DHT22;3747;48.628;9.058;2022-12-07T13:09:21;3.80;99.90
7411;DHT22;3747;48.628;9.058;2022-12-07T13:11:54;4.00;99.90
7411;DHT22;3747;48.628;9.058;2022-12-07T13:14:53;4.10;99.90
7411;DHT22;3747;48.628;9.058;2022-12-07T13:17:55;4.10;99.90
7411;DHT22;3747;48.628;9.058;2022-12-07T13:20:46;4.10;99.90
7411;DHT22;3747;48.628;9.058;2022-12-07T13:23:18;4.10;99.90
7411;DHT22;3747;48.628;9.058;2022-12-07T13:25:51;4.10;99.90
7411;DHT22;3747;48.628;9.058;2022-12-07T13:28:18;4.00;99.90
7411;DHT22;3747;48.628;9.058;2022-12-07T13:30:54;4.00;99.90
7411;DHT22;3747;48.628;9.058;2022-12-07T13:33:24;4.00;99.90
7411;DHT22;3747;48.628;9.058;2022-12-07T13:35:55;4.00;99.90
7411;DHT22;3747;48.628;9.058;2022-12-07T13:38:28;3.80;99.90
7411;DHT22;3747;48.628;9.058;2022-12-07T13:41:12;3.60;99.90
7411;DHT22;3747;48.628;9.058;2022-12-07T13:43:44;3.60;99.90
7411;DHT22;3747;48.628;9.058;2022-12-07T13:46:11;3.60;99.90
7411;DHT22;3747;48.628;9.058;2022-12-07T13:48:45;3.50;99.90
7411;DHT22;3747;48.628;9.058;2022-12-07T13:51:19;3.60;99.90
7411;DHT22;3747;48.628;9.058;2022-12-07T13:53:48;3.50;99.90
7411;DHT22;3747;48.628;9.058;2022-12-07T13:56:15;3.60;99.90
7411;DHT22;3747;48.628;9.058;2022-12-07T13:58:42;3.50;99.90
7411;DHT22;3747;48.628;9.058;2022-12-07T14:01:10;3.50;99.90
7411;DHT22;3747;48.628;9.058;2022-12-07T14:03:36;3.40;99.90
7411;DHT22;3747;48.628;9.058;2022-12-07T14:06:18;3.40;99.90
7411;DHT22;3747;48.628;9.058;2022-12-07T14:08:45;3.30;99.90
7411;DHT22;3747;48.628;9.058;2022-12-07T14:11:17;3.20;99.90
7411;DHT22;3747;48.628;9.058;2022-12-07T14:13:55;3.20;99.90
7411;DHT22;3747;48.628;9.058;2022-12-07T14:16:26;3.20;99.90
7411;DHT22;3747;48.628;9.058;2022-12-07T14:18:55;3.20;99.90
7411;DHT22;3747;48.628;9.058;2022-12-07T14:21:26;3.20;99.90
7411;DHT22;3747;48.628;9.058;2022-12-07T14:24:15;3.10;99.90
7411;DHT22;3747;48.628;9.058;2022-12-07T14:26:43;3.20;99.90
7411;DHT22;3747;48.628;9.058;2022-12-07T14:29:22;3.20;99.90
7411;DHT22;3747;48.628;9.058;2022-12-07T14:31:48;3.20;99.90
7411;DHT22;3747;48.628;9.058;2022-12-07T14:34:15;3.10;99.90
7411;DHT22;3747;48.628;9.058;2022-12-07T14:36:43;3.00;99.90
7411;DHT22;3747;48.628;9.058;2022-12-07T14:39:10;2.90;99.90
7411;DHT22;3747;48.628;9.058;2022-12-07T14:41:37;2.90;99.90
7411;DHT22;3747;48.628;9.058;2022-12-07T14:44:19;2.90;99.90
7411;DHT22;3747;48.628;9.058;2022-12-07T14:46:47;2.80;99.90
7411;DHT22;3747;48.628;9.058;2022-12-07T14:49:14;2.70;99.90
7411;DHT22;3747;48.628;9.058;2022-12-07T14:51:43;2.70;99.90
7411;DHT22;3747;48.628;9.058;2022-12-07T14:54:14;2.60;99.90
7411;DHT22;3747;48.628;9.058;2022-12-07T14:56:42;2.50;99.90
7411;DHT22;3747;48.628;9.058;2022-12-07T14:59:18;2.50;99.90
7411;DHT22;3747;48.628;9.058;2022-12-07T15:01:45;2.50;99.90
7411;DHT22;3747;48.628;9.058;2022-12-07T15:04:12;2.40;99.90
7411;DHT22;3747;48.628;9.058;2022-12-07T15:06:56;2.40;99.90
7411;DHT22;3747;48.628;9.058;2022-12-07T15:09:22;2.30;99.90
7411;DHT22;3747;48.628;9.058;2022-12-07T15:11:50;2.30;99.90
7411;DHT22;3747;48.628;9.058;2022-12-07T15:14:17;2.20;99.90
7411;DHT22;3747;48.628;9.058;2022-12-07T15:16:44;2.20;99.90
7411;DHT22;3747;48.628;9.058;2022-12-07T15:19:13;2.10;99.90
7411;DHT22;3747;48.628;9.058;2022-12-07T15:21:41;2.10;99.90
7411;DHT22;3747;48.628;9.058;2022-12-07T15:24:10;2.10;99.90
7411;DHT22;3747;48.628;9.058;2022-12-07T15:26:37;2.10;99.90
7411;DHT22;3747;48.628;9.058;2022-12-07T15:29:06;2.10;99.90
7411;DHT22;3747;48.628;9.058;2022-12-07T15:31:33;2.00;99.90
7411;DHT22;3747;48.628;9.058;2022-12-07T15:34:00;2.00;99.90
7411;DHT22;3747;48.628;9.058;2022-12-07T15:36:29;1.90;99.90
7411;DHT22;3747;48.628;9.058;2022-12-07T15:38:56;1.90;99.90
7411;DHT22;3747;48.628;9.058;2022-12-07T15:41:25;1.80;99.90
7411;DHT22;3747;48.628;9.058;2022-12-07T15:43:52;1.80;99.90
7411;DHT22;3747;48.628;9.058;2022-12-07T15:46:38;1.90;99.90
7411;DHT22;3747;48.628;9.058;2022-12-07T15:49:08;1.90;99.90
7411;DHT22;3747;48.628;9.058;2022-12-07T15:51:39;1.80;99.90
7411;DHT22;3747;48.628;9.058;2022-12-07T15:54:05;1.70;99.90
7411;DHT22;3747;48.628;9.058;2022-12-07T15:56:34;1.70;99.90
7411;DHT22;3747;48.628;9.058;2022-12-07T15:59:01;1.70;99.90
7411;DHT22;3747;48.628;9.058;2022-12-07T16:01:28;1.70;99.90
7411;DHT22;3747;48.628;9.058;2022-12-07T16:03:57;1.70;99.90
7411;DHT22;3747;48.628;9.058;2022-12-07T16:06:27;1.70;99.90
7411;DHT22;3747;48.628;9.058;2022-12-07T16:08:59;1.70;99.90
7411;DHT22;3747;48.628;9.058;2022-12-07T16:11:49;1.80;99.90
7411;DHT22;3747;48.628;9.058;2022-12-07T16:14:18;1.80;99.90
7411;DHT22;3747;48.628;9.058;2022-12-07T16:16:46;1.90;99.90
7411;DHT22;3747;48.628;9.058;2022-12-07T16:19:17;2.00;99.90
7411;DHT22;3747;48.628;9.058;2022-12-07T16:21:44;2.00;99.90
7411;DHT22;3747;48.628;9.058;2022-12-07T16:24:10;2.00;99.90
7411;DHT22;3747;48.628;9.058;2022-12-07T16:26:38;2.00;99.90
7411;DHT22;3747;48.628;9.058;2022-12-07T16:29:16;2.00;99.90
7411;DHT22;3747;48.628;9.058;2022-12-07T16:31:44;2.00;99.90
7411;DHT22;3747;48.628;9.058;2022-12-07T16:34:11;2.00;99.90
7411;DHT22;3747;48.628;9.058;2022-12-07T16:36:42;1.90;99.90
7411;DHT22;3747;48.628;9.058;2022-12-07T16:39:09;1.90;99.90
7411;DHT22;3747;48.628;9.058;2022-12-07T16:41:36;1.90;99.90
7411;DHT22;3747;48.628;9.058;2022-12-07T16:44:04;1.90;99.90
7411;DHT22;3747;48.628;9.058;2022-12-07T16:46:34;1.90;99.90
7411;DHT22;3747;48.628;9.058;2022-12-07T16:49:01;2.00;99.90